createdAt,value
2023-04-12T00:01:46.880Z,100720.44
2023-04-12T00:04:16.185Z,100730.38
2023-04-12T00:06:48.650Z,100730.38
2023-04-12T00:09:17.029Z,100724.41
2023-04-12T00:11:44.900Z,100727.66
2023-04-12T00:14:12.992Z,100716.16
2023-04-12T00:16:41.662Z,100708.78
2023-04-12T00:19:09.716Z,100709.63
2023-04-12T00:21:37.674Z,100708.59
2023-04-12T00:24:07.602Z,100710.31
2023-04-12T00:26:35.757Z,100694.13
2023-04-12T00:29:03.796Z,100700.22
2023-04-12T00:31:32.148Z,100698.94
2023-04-12T00:34:02.485Z,100703.19
2023-04-12T00:36:30.712Z,100697.34
2023-04-12T00:38:58.694Z,100686.25
2023-04-12T00:41:28.885Z,100668.22
2023-04-12T00:43:57.303Z,100667.91
2023-04-12T00:46:25.708Z,100659.50
2023-04-12T00:48:53.850Z,100662.91
2023-04-12T00:51:22.524Z,100654.66
2023-04-12T00:53:50.673Z,100652.66
2023-04-12T00:56:19.832Z,100649.81
2023-04-12T00:58:49.275Z,100667.69
2023-04-12T01:01:19.438Z,100662.75
2023-04-12T01:03:47.912Z,100677.34
2023-04-12T01:06:27.082Z,100656.91
2023-04-12T01:09:01.804Z,100672.66
2023-04-12T01:11:33.974Z,100674.34
2023-04-12T01:14:10.927Z,100666.13
2023-04-12T01:16:44.437Z,100642.69
2023-04-12T01:19:34.209Z,100656.13
2023-04-12T01:22:13.395Z,100665.09
2023-04-12T01:24:52.964Z,100690.25
2023-04-12T01:27:35.701Z,100691.13
2023-04-12T01:30:08.037Z,100682.00
2023-04-12T01:32:38.279Z,100687.25
2023-04-12T01:35:09.798Z,100689.78
2023-04-12T01:37:38.004Z,100670.19
2023-04-12T01:40:07.872Z,100696.22
2023-04-12T01:42:37.324Z,100682.16
2023-04-12T01:45:05.976Z,100685.16
2023-04-12T01:47:34.684Z,100667.50
2023-04-12T01:50:15.394Z,100680.69
2023-04-12T01:52:49.423Z,100654.19
2023-04-12T01:55:20.355Z,100639.91
2023-04-12T01:57:51.411Z,100669.34
2023-04-12T02:00:21.058Z,100664.09
2023-04-12T02:02:49.437Z,100661.53
2023-04-12T02:05:18.996Z,100656.13
2023-04-12T02:07:49.854Z,100655.31
2023-04-12T02:10:29.307Z,100625.41
2023-04-12T02:13:01.414Z,100650.34
2023-04-12T02:15:30.097Z,100650.66
2023-04-12T02:17:59.354Z,100654.50
2023-04-12T02:20:28.129Z,100655.50
2023-04-12T02:22:56.121Z,100620.03
2023-04-12T02:25:24.232Z,100644.00
2023-04-12T02:27:52.264Z,100639.91
2023-04-12T02:30:22.794Z,100637.88
2023-04-12T02:32:54.045Z,100646.31
2023-04-12T02:35:27.230Z,100639.91
2023-04-12T02:38:00.818Z,100648.69
2023-04-12T02:40:30.948Z,100645.28
2023-04-12T02:42:59.772Z,100647.88
2023-04-12T02:45:29.716Z,100653.78
2023-04-12T02:47:58.627Z,100658.03
2023-04-12T02:50:30.299Z,100654.06
2023-04-12T02:53:06.356Z,100653.75
2023-04-12T02:55:34.585Z,100658.00
2023-04-12T02:58:04.931Z,100655.84
2023-04-12T03:00:35.150Z,100650.13
2023-04-12T03:03:04.120Z,100644.03
2023-04-12T03:05:33.542Z,100649.00
2023-04-12T03:08:01.804Z,100638.34
2023-04-12T03:10:40.722Z,100642.47
2023-04-12T03:13:08.762Z,100637.75
2023-04-12T03:15:40.783Z,100658.19
2023-04-12T03:18:08.915Z,100640.06
2023-04-12T03:20:47.508Z,100653.53
2023-04-12T03:23:16.663Z,100656.06
2023-04-12T03:25:47.692Z,100659.63
2023-04-12T03:28:36.156Z,100655.19
2023-04-12T03:31:08.703Z,100658.59
2023-04-12T03:33:47.475Z,100654.22
2023-04-12T03:36:24.764Z,100647.78
2023-04-12T03:38:58.473Z,100654.91
2023-04-12T03:41:27.284Z,100655.59
2023-04-12T03:43:56.116Z,100655.59
2023-04-12T03:46:25.847Z,100658.16
2023-04-12T03:48:58.109Z,100664.41
2023-04-12T03:51:30.804Z,100658.16
2023-04-12T03:54:04.446Z,100653.44
2023-04-12T03:56:43.146Z,100655.00
2023-04-12T03:59:20.306Z,100647.88
2023-04-12T04:01:51.946Z,100644.34
2023-04-12T04:04:21.150Z,100647.19
2023-04-12T04:06:51.426Z,100647.19
2023-04-12T04:09:20.092Z,100654.59
2023-04-12T04:11:50.026Z,100643.97
2023-04-12T04:14:19.438Z,100649.66
2023-04-12T04:16:47.574Z,100650.50
2023-04-12T04:19:17.560Z,100646.25
2023-04-12T04:21:50.073Z,100640.00
2023-04-12T04:24:18.911Z,100637.44
2023-04-12T04:26:50.399Z,100642.84
2023-04-12T04:29:28.693Z,100634.91
2023-04-12T04:31:57.956Z,100627.66
2023-04-12T04:34:28.278Z,100639.28
2023-04-12T04:37:04.896Z,100628.66
2023-04-12T04:39:33.061Z,100627.78
2023-04-12T04:42:01.472Z,100629.50
2023-04-12T04:44:40.572Z,100620.72
2023-04-12T04:47:11.777Z,100613.03
2023-04-12T04:49:41.311Z,100624.25
2023-04-12T04:52:22.363Z,100621.53
2023-04-12T04:54:51.454Z,100623.41
2023-04-12T04:57:21.096Z,100624.09
2023-04-12T04:59:49.713Z,100615.84
2023-04-12T05:02:19.138Z,100613.00
2023-04-12T05:04:48.627Z,100617.47
2023-04-12T05:07:19.918Z,100627.66
2023-04-12T05:09:49.658Z,100622.78
2023-04-12T05:12:20.136Z,100626.91
2023-04-12T05:14:52.369Z,100621.31
2023-04-12T05:17:20.980Z,100632.69
2023-04-12T05:19:50.453Z,100635.94
2023-04-12T05:22:20.550Z,100639.16
2023-04-12T05:24:48.673Z,100640.00
2023-04-12T05:27:17.111Z,100652.22
2023-04-12T05:29:47.176Z,100641.94
2023-04-12T05:32:17.191Z,100639.63
2023-04-12T05:34:45.140Z,100640.16
2023-04-12T05:37:14.376Z,100616.06
2023-04-12T05:39:43.578Z,100642.97
2023-04-12T05:42:11.625Z,100648.75
2023-04-12T05:44:40.633Z,100643.03
2023-04-12T05:47:13.216Z,100636.59
2023-04-12T05:49:41.365Z,100622.72
2023-04-12T05:52:11.064Z,100635.00
2023-04-12T05:54:41.753Z,100632.97
2023-04-12T05:57:13.956Z,100635.66
2023-04-12T05:59:42.161Z,100640.91
2023-04-12T06:02:12.102Z,100640.78
2023-04-12T06:04:50.007Z,100644.34
2023-04-12T06:07:20.019Z,100645.88
2023-04-12T06:09:49.976Z,100646.56
2023-04-12T06:12:18.933Z,100644.72
2023-04-12T06:14:47.661Z,100643.84
2023-04-12T06:17:15.871Z,100645.22
2023-04-12T06:19:44.897Z,100650.50
2023-04-12T06:22:12.870Z,100645.91
2023-04-12T06:24:42.281Z,100613.78
2023-04-12T06:27:13.537Z,100628.91
2023-04-12T06:29:41.737Z,100619.13
2023-04-12T06:32:10.042Z,100619.31
2023-04-12T06:34:38.143Z,100599.00
2023-04-12T06:37:12.210Z,100626.03
2023-04-12T06:39:40.323Z,100626.38
2023-04-12T06:42:08.352Z,100628.59
2023-04-12T06:44:43.096Z,100629.31
2023-04-12T06:47:11.437Z,100626.28
2023-04-12T06:49:39.588Z,100627.81
2023-04-12T06:52:07.500Z,100614.44
2023-04-12T06:54:37.621Z,100637.13
2023-04-12T06:57:09.511Z,100633.06
2023-04-12T06:59:37.583Z,100630.34
2023-04-12T07:02:07.820Z,100644.47
2023-04-12T07:04:36.139Z,100654.94
2023-04-12T07:07:04.317Z,100645.50
2023-04-12T07:09:33.326Z,100631.59
2023-04-12T07:12:02.323Z,100644.81
2023-04-12T07:14:30.703Z,100644.50
2023-04-12T07:16:58.947Z,100655.00
2023-04-12T07:19:29.722Z,100648.75
2023-04-12T07:21:57.918Z,100669.47
2023-04-12T07:24:26.188Z,100661.69
2023-04-12T07:26:54.738Z,100598.44
2023-04-12T07:29:22.755Z,100652.22
2023-04-12T07:31:50.775Z,100656.13
2023-04-12T07:34:19.006Z,100650.56
2023-04-12T07:36:48.490Z,100648.53
2023-04-12T07:39:16.571Z,100653.78
2023-04-12T07:41:46.496Z,100623.09
2023-04-12T07:44:14.459Z,100651.75
2023-04-12T07:46:43.084Z,100642.59
2023-04-12T07:49:11.419Z,100645.50
2023-04-12T07:51:39.362Z,100639.88
2023-04-12T07:54:08.770Z,100561.19
2023-04-12T07:56:37.230Z,100652.44
2023-04-12T07:59:05.238Z,100648.53
2023-04-12T08:01:33.275Z,100649.06
2023-04-12T08:04:02.364Z,100657.00
2023-04-12T08:06:33.717Z,100651.59
2023-04-12T08:09:02.353Z,100656.00
2023-04-12T08:11:32.208Z,100652.44
2023-04-12T08:14:00.260Z,100647.16
2023-04-12T08:16:28.378Z,100657.84
2023-04-12T08:18:56.478Z,100658.72
2023-04-12T08:21:24.599Z,100657.69
2023-04-12T08:23:52.558Z,100651.41
2023-04-12T08:26:21.258Z,100653.97
2023-04-12T08:28:50.669Z,100648.53
2023-04-12T08:31:18.792Z,100650.22
2023-04-12T08:33:46.916Z,100645.66
2023-04-12T08:36:15.457Z,100657.53
2023-04-12T08:38:45.960Z,100624.78
2023-04-12T08:41:15.237Z,100645.84
2023-04-12T08:43:46.170Z,100641.94
2023-04-12T08:46:17.648Z,100640.91
2023-04-12T08:48:47.484Z,100644.47
2023-04-12T08:51:17.281Z,100651.59
2023-04-12T08:53:45.595Z,100648.91
2023-04-12T08:56:14.743Z,100649.56
2023-04-12T08:58:46.675Z,100655.66
2023-04-12T09:01:17.360Z,100645.00
2023-04-12T09:03:47.066Z,100649.75
2023-04-12T09:06:15.736Z,100657.03
2023-04-12T09:08:54.446Z,100652.47
2023-04-12T09:11:24.538Z,100652.59
2023-04-12T09:13:52.880Z,100648.22
2023-04-12T09:16:38.298Z,100450.81
2023-04-12T09:19:06.900Z,100622.25
2023-04-12T09:21:35.849Z,100657.16
2023-04-12T09:24:10.775Z,100654.66
2023-04-12T09:26:41.217Z,100656.50
2023-04-12T09:29:24.331Z,100647.50
2023-04-12T09:32:02.631Z,100620.06
2023-04-12T09:34:31.127Z,100655.16
2023-04-12T09:36:59.555Z,100650.59
2023-04-12T09:39:33.251Z,100657.00
2023-04-12T09:42:18.093Z,100652.59
2023-04-12T09:44:54.358Z,100658.38
2023-04-12T09:47:24.964Z,100638.66
2023-04-12T09:49:53.039Z,100654.94
2023-04-12T09:52:21.165Z,100665.13
2023-04-12T09:54:49.650Z,100656.31
2023-04-12T09:57:20.916Z,100659.00
2023-04-12T09:59:51.204Z,100655.63
2023-04-12T10:02:20.738Z,100614.69
2023-04-12T10:04:51.029Z,100651.22
2023-04-12T10:07:19.813Z,100653.91
2023-04-12T10:09:48.295Z,100649.69
2023-04-12T10:12:17.157Z,100638.63
2023-04-12T10:14:45.929Z,100649.88
2023-04-12T10:17:14.629Z,100639.00
2023-04-12T10:19:42.699Z,100644.41
2023-04-12T10:22:12.091Z,100644.75
2023-04-12T10:24:40.321Z,100618.41
2023-04-12T10:27:08.351Z,100593.66
2023-04-12T10:29:38.156Z,100649.31
2023-04-12T10:32:21.146Z,100657.44
2023-04-12T10:34:53.208Z,100647.75
2023-04-12T10:37:22.674Z,100649.59
2023-04-12T10:39:54.511Z,100657.91
2023-04-12T10:42:27.174Z,100652.47
2023-04-12T10:44:58.687Z,100656.38
2023-04-12T10:48:03.874Z,100661.94
2023-04-12T10:50:33.904Z,100659.72
2023-04-12T10:53:27.072Z,100662.75
2023-04-12T10:55:55.600Z,100651.88
2023-04-12T10:59:00.249Z,100651.56
2023-04-12T11:01:34.123Z,100657.47
2023-04-12T11:04:08.173Z,100666.59
2023-04-12T11:06:52.742Z,100651.69
2023-04-12T11:09:43.783Z,100655.91
2023-04-12T11:12:21.090Z,100660.94
2023-04-12T11:14:51.276Z,100656.69
2023-04-12T11:17:26.148Z,100652.78
2023-04-12T11:19:59.717Z,100662.22
2023-04-12T11:22:30.663Z,100657.16
2023-04-12T11:25:01.909Z,100655.75
2023-04-12T11:27:31.832Z,100657.91
2023-04-12T11:30:01.315Z,100652.66
2023-04-12T11:32:30.699Z,100659.09
2023-04-12T11:34:59.861Z,100664.50
2023-04-12T11:37:32.169Z,100639.59
2023-04-12T11:40:02.120Z,100645.88
2023-04-12T11:42:30.511Z,100655.16
2023-04-12T11:45:04.037Z,100645.50
2023-04-12T11:47:43.714Z,100658.19
2023-04-12T11:50:12.168Z,100656.78
2023-04-12T11:52:41.354Z,100647.28
2023-04-12T11:55:11.870Z,100663.66
2023-04-12T11:57:40.442Z,100650.94
2023-04-12T12:00:10.021Z,100656.03
2023-04-12T12:02:49.335Z,100647.84
2023-04-12T12:05:24.944Z,100664.63
2023-04-12T12:07:54.155Z,100654.44
2023-04-12T12:10:41.636Z,100658.84
2023-04-12T12:13:12.549Z,100658.31
2023-04-12T12:15:40.986Z,100663.03
2023-04-12T12:18:10.158Z,100661.50
2023-04-12T12:20:43.229Z,100658.94
2023-04-12T12:23:11.351Z,100651.16
2023-04-12T12:25:47.088Z,100651.59
2023-04-12T12:28:15.147Z,100650.91
2023-04-12T12:30:43.183Z,100653.47
2023-04-12T12:33:11.220Z,100648.38
2023-04-12T12:35:39.295Z,100652.06
2023-04-12T12:38:08.633Z,100646.97
2023-04-12T12:40:36.878Z,100651.56
2023-04-12T12:43:07.058Z,100650.81
2023-04-12T12:45:36.379Z,100646.41
2023-04-12T12:48:05.822Z,100635.53
2023-04-12T12:50:35.472Z,100581.34
2023-04-12T12:53:06.027Z,100643.34
2023-04-12T12:55:34.287Z,100639.09
2023-04-12T12:58:08.197Z,100640.25
2023-04-12T13:00:38.132Z,100647.66
2023-04-12T13:03:06.339Z,100640.19
2023-04-12T13:05:34.600Z,100651.50
2023-04-12T13:08:02.811Z,100639.03
2023-04-12T13:10:30.999Z,100641.84
2023-04-12T13:13:01.573Z,100637.63
2023-04-12T13:15:29.676Z,100642.88
2023-04-12T13:17:59.124Z,100640.31
2023-04-12T13:20:27.785Z,100633.84
2023-04-12T13:22:55.914Z,100641.47
2023-04-12T13:25:24.532Z,100635.56
2023-04-12T13:27:53.084Z,100640.78
2023-04-12T13:30:21.130Z,100643.66
2023-04-12T13:32:49.119Z,100644.66
2023-04-12T13:35:19.282Z,100645.63
2023-04-12T13:37:47.337Z,100650.34
2023-04-12T13:40:15.808Z,100636.16
2023-04-12T13:42:43.780Z,100646.13
2023-04-12T13:45:12.559Z,100634.06
2023-04-12T13:47:40.970Z,100638.47
2023-04-12T13:50:09.981Z,100647.75
2023-04-12T13:52:39.311Z,100635.00
2023-04-12T13:55:09.242Z,100639.94
2023-04-12T13:57:37.273Z,100639.09
2023-04-12T14:00:06.225Z,100643.78
2023-04-12T14:02:34.339Z,100651.03
2023-04-12T14:05:02.628Z,100649.38
2023-04-12T14:07:30.782Z,100644.09
2023-04-12T14:10:00.061Z,100647.66
2023-04-12T14:12:28.014Z,100651.34
2023-04-12T14:14:56.079Z,100644.25
2023-04-12T14:17:24.160Z,100650.66
2023-04-12T14:19:52.545Z,100646.41
2023-04-12T14:22:20.773Z,100641.00
2023-04-12T14:24:48.786Z,100640.31
2023-04-12T14:27:18.362Z,100635.91
2023-04-12T14:29:46.590Z,100641.59
2023-04-12T14:32:14.845Z,100628.69
2023-04-12T14:34:43.596Z,100638.22
2023-04-12T14:37:11.913Z,100646.59
2023-04-12T14:39:39.917Z,100651.13
2023-04-12T14:42:07.902Z,100643.19
2023-04-12T14:44:37.370Z,100651.47
2023-04-12T14:47:05.254Z,100648.03
2023-04-12T14:49:33.658Z,100655.59
2023-04-12T14:52:02.564Z,100656.59
2023-04-12T14:54:30.600Z,100660.31
2023-04-12T14:56:58.560Z,100666.72
2023-04-12T14:59:27.396Z,100665.16
2023-04-12T15:01:58.650Z,100667.00
2023-04-12T15:04:26.825Z,100666.31
2023-04-12T15:06:54.850Z,100671.84
2023-04-12T15:09:23.300Z,100671.03
2023-04-12T15:11:54.975Z,100677.41
2023-04-12T15:14:24.287Z,100646.81
2023-04-12T15:16:52.280Z,100672.28
2023-04-12T15:19:23.471Z,100662.34
2023-04-12T15:21:52.349Z,100666.91
2023-04-12T15:24:20.864Z,100673.16
2023-04-12T15:26:50.791Z,100669.47
2023-04-12T15:29:21.153Z,100670.28
2023-04-12T15:31:49.384Z,100663.75
2023-04-12T15:34:17.473Z,100660.22
2023-04-12T15:36:47.116Z,100663.75
2023-04-12T15:39:15.941Z,100656.78
2023-04-12T15:41:43.912Z,100656.97
2023-04-12T15:44:13.359Z,100654.41
2023-04-12T15:46:42.515Z,100649.03
2023-04-12T15:49:11.938Z,100612.75
2023-04-12T15:51:40.264Z,100651.00
2023-04-12T15:54:09.599Z,100644.78
2023-04-12T15:56:38.616Z,100641.50
2023-04-12T15:59:09.114Z,100650.31
2023-04-12T16:01:38.020Z,100651.31
2023-04-12T16:04:06.970Z,100647.75
2023-04-12T16:06:38.088Z,100653.28
2023-04-12T16:09:06.773Z,100647.91
2023-04-12T16:11:36.142Z,100650.59
2023-04-12T16:14:04.227Z,100649.91
2023-04-12T16:16:34.622Z,100649.91
2023-04-12T16:19:02.691Z,100644.97
2023-04-12T16:21:30.856Z,100654.59
2023-04-12T16:23:59.521Z,100649.34
2023-04-12T16:26:27.603Z,100652.03
2023-04-12T16:28:57.272Z,100649.50
2023-04-12T16:31:26.408Z,100651.34
2023-04-12T16:33:55.869Z,100660.47
2023-04-12T16:36:24.528Z,100648.94
2023-04-12T16:38:55.080Z,100655.19
2023-04-12T16:41:23.399Z,100661.44
2023-04-12T16:43:53.705Z,100660.47
2023-04-12T16:46:23.538Z,100657.44
2023-04-12T16:48:51.534Z,100663.56
2023-04-12T16:51:19.728Z,100658.69
2023-04-12T16:53:47.712Z,100654.16
2023-04-12T16:56:16.865Z,100659.41
2023-04-12T16:58:45.469Z,100660.13
2023-04-12T17:01:17.049Z,100667.06
2023-04-12T17:03:47.861Z,100659.50
2023-04-12T17:06:17.169Z,100665.63
2023-04-12T17:08:46.219Z,100666.31
2023-04-12T17:11:14.182Z,100674.13
2023-04-12T17:13:42.280Z,100674.13
2023-04-12T17:16:11.044Z,100673.09
2023-04-12T17:18:40.235Z,100664.31
2023-04-12T17:21:09.589Z,100675.78
2023-04-12T17:23:38.774Z,100669.69
2023-04-12T17:26:08.333Z,100673.94
2023-04-12T17:28:39.223Z,100674.13
2023-04-12T17:31:08.813Z,100666.88
2023-04-12T17:33:37.649Z,100674.13
2023-04-12T17:36:11.343Z,100675.28
2023-04-12T17:38:41.087Z,100676.81
2023-04-12T17:41:10.293Z,100650.16
2023-04-12T17:43:38.583Z,100680.50
2023-04-12T17:46:07.247Z,100676.09
2023-04-12T17:48:35.809Z,100677.97
2023-04-12T17:51:04.258Z,100654.16
2023-04-12T17:53:32.343Z,100674.31
2023-04-12T17:56:02.109Z,100687.22
2023-04-12T17:58:30.233Z,100690.75
2023-04-12T18:00:59.490Z,100689.19
2023-04-12T18:03:27.940Z,100679.00
2023-04-12T18:05:58.678Z,100689.34
2023-04-12T18:08:27.166Z,100693.03
2023-04-12T18:10:55.187Z,100685.00
2023-04-12T18:13:24.659Z,100691.34
2023-04-12T18:15:52.762Z,100694.19
2023-04-12T18:18:20.852Z,100696.88
2023-04-12T18:20:48.876Z,100698.75
2023-04-12T18:23:16.876Z,100697.91
2023-04-12T18:25:45.400Z,100691.81
2023-04-12T18:28:13.730Z,100696.66
2023-04-12T18:30:43.043Z,100694.41
2023-04-12T18:33:11.351Z,100712.28
2023-04-12T18:35:40.233Z,100701.78
2023-04-12T18:38:08.141Z,100713.59
2023-04-12T18:40:38.733Z,100711.19
2023-04-12T18:43:07.942Z,100701.88
2023-04-12T18:45:39.635Z,100710.66
2023-04-12T18:48:09.944Z,100716.78
2023-04-12T18:50:39.245Z,100715.78
2023-04-12T18:53:07.709Z,100697.47
2023-04-12T18:55:35.926Z,100718.63
2023-04-12T18:58:03.870Z,100720.06
2023-04-12T19:00:32.808Z,100715.09
2023-04-12T19:03:00.980Z,100723.78
2023-04-12T19:05:30.566Z,100725.03
2023-04-12T19:07:58.526Z,100680.09
2023-04-12T19:10:30.456Z,100719.50
2023-04-12T19:12:58.519Z,100721.94
2023-04-12T19:15:27.161Z,100721.94
2023-04-12T19:17:55.308Z,100712.69
2023-04-12T19:20:23.234Z,100715.97
2023-04-12T19:22:53.073Z,100727.44
2023-04-12T19:25:21.293Z,100731.16
2023-04-12T19:27:49.424Z,100728.47
2023-04-12T19:30:17.926Z,100725.19
2023-04-12T19:32:45.917Z,100728.59
2023-04-12T19:35:14.062Z,100731.28
2023-04-12T19:37:42.093Z,100733.13
2023-04-12T19:40:13.746Z,100728.75
2023-04-12T19:42:42.273Z,100721.63
2023-04-12T19:45:10.773Z,100728.88
2023-04-12T19:47:44.520Z,100718.09
2023-04-12T19:50:13.259Z,100726.31
2023-04-12T19:52:42.597Z,100726.31
2023-04-12T19:55:12.549Z,100716.34
2023-04-12T19:57:41.708Z,100718.41
2023-04-12T20:00:19.386Z,100724.50
2023-04-12T20:02:47.953Z,100741.38
2023-04-12T20:05:16.873Z,100742.34
2023-04-12T20:07:45.277Z,100744.38
2023-04-12T20:10:15.716Z,100755.25
2023-04-12T20:12:44.346Z,100742.94
2023-04-12T20:15:13.064Z,100741.94
2023-04-12T20:17:42.036Z,100740.06
2023-04-12T20:20:12.736Z,100754.97
2023-04-12T20:22:42.710Z,100750.84
2023-04-12T20:25:11.212Z,100749.00
2023-04-12T20:27:41.238Z,100746.31
2023-04-12T20:30:11.370Z,100745.03
2023-04-12T20:32:39.492Z,100682.25
2023-04-12T20:35:08.956Z,100732.50
2023-04-12T20:37:37.579Z,100727.56
2023-04-12T20:40:09.339Z,100766.16
2023-04-12T20:42:37.345Z,100764.00
2023-04-12T20:45:07.699Z,100756.63
2023-04-12T20:47:35.741Z,100769.13
2023-04-12T20:50:03.809Z,100778.91
2023-04-12T20:52:31.822Z,100770.69
2023-04-12T20:54:59.767Z,100767.13
2023-04-12T20:57:28.555Z,100780.63
2023-04-12T20:59:56.575Z,100681.88
2023-04-12T21:02:26.085Z,100767.13
2023-04-12T21:04:54.426Z,100757.31
2023-04-12T21:07:25.947Z,100748.38
2023-04-12T21:09:54.001Z,100753.34
2023-04-12T21:12:21.976Z,100744.22
2023-04-12T21:14:50.926Z,100710.19
2023-04-12T21:17:24.576Z,100735.72
2023-04-12T21:19:54.110Z,100730.84
2023-04-12T21:22:22.104Z,100760.41
2023-04-12T21:24:50.197Z,100760.13
2023-04-12T21:27:18.130Z,100751.84
2023-04-12T21:29:47.252Z,100744.63
2023-04-12T21:32:15.210Z,100750.72
2023-04-12T21:34:43.100Z,100744.75
2023-04-12T21:37:12.600Z,100758.22
2023-04-12T21:39:43.412Z,100663.06
2023-04-12T21:42:11.413Z,100728.34
2023-04-12T21:44:42.311Z,100706.63
2023-04-12T21:47:10.428Z,100712.84
2023-04-12T21:49:38.339Z,100660.41
2023-04-12T21:52:06.545Z,100718.81
2023-04-12T21:54:37.032Z,100709.72
2023-04-12T21:57:06.241Z,100719.50
2023-04-12T21:59:34.241Z,100722.06
2023-04-12T22:02:02.293Z,100697.91
2023-04-12T22:04:30.308Z,100694.06
2023-04-12T22:06:58.272Z,100689.53
2023-04-12T22:09:27.109Z,100685.84
2023-04-12T22:11:56.844Z,100691.25
2023-04-12T22:14:24.891Z,100684.81
2023-04-12T22:16:53.310Z,100694.63
2023-04-12T22:19:21.296Z,100699.06
2023-04-12T22:21:49.238Z,100693.66
2023-04-12T22:24:17.319Z,100693.66
2023-04-12T22:26:45.311Z,100692.63
2023-04-12T22:29:17.727Z,100697.03
2023-04-12T22:31:47.053Z,100692.63
2023-04-12T22:34:15.277Z,100707.69
2023-04-12T22:36:45.003Z,100702.16
2023-04-12T22:39:15.529Z,100709.22
2023-04-12T22:41:49.050Z,100705.66
2023-04-12T22:44:18.833Z,100714.50
2023-04-12T22:46:48.410Z,100704.69
2023-04-12T22:49:16.880Z,100710.94
2023-04-12T22:51:45.089Z,100711.81
2023-04-12T22:54:13.162Z,100703.69
2023-04-12T22:56:45.270Z,100725.00
2023-04-12T22:59:14.417Z,100731.22
2023-04-12T23:01:45.253Z,100730.25
2023-04-12T23:04:13.659Z,100743.75
2023-04-12T23:06:43.036Z,100737.38
2023-04-12T23:09:12.569Z,100725.53
2023-04-12T23:11:41.879Z,100727.53
2023-04-12T23:14:10.652Z,100696.34
2023-04-12T23:16:44.183Z,100715.28
2023-04-12T23:19:14.807Z,100709.72
2023-04-12T23:21:43.115Z,100695.34
2023-04-12T23:24:15.314Z,100697.06
2023-04-12T23:26:45.084Z,100697.06
2023-04-12T23:29:13.259Z,100665.47
2023-04-12T23:31:41.942Z,100683.34
2023-04-12T23:34:10.055Z,100692.22
2023-04-12T23:36:39.491Z,100702.00
2023-04-12T23:39:09.451Z,100696.59
2023-04-12T23:41:38.298Z,100685.78
2023-04-12T23:44:06.536Z,100679.41
2023-04-12T23:46:35.062Z,100674.84
2023-04-12T23:49:03.080Z,100670.28
2023-04-12T23:51:31.048Z,100676.53
2023-04-12T23:54:00.784Z,100673.81
2023-04-12T23:56:28.787Z,100691.75
2023-04-12T23:58:56.840Z,100679.41
